Map

Track Data

SID SEASON NUMBER BASIN SUBBASIN NAME ISO_TIME NATURE LAT LON WMO_WIND WMO_PRES WMO_AGENCY TRACK_TYPE DIST2LAND LANDFALL IFLAG USA_AGENCY USA_ATCF_ID USA_LAT USA_LON USA_RECORD USA_STATUS USA_WIND USA_PRES USA_SSHS USA_R34_NE USA_R34_SE USA_R34_SW USA_R34_NW USA_R50_NE USA_R50_SE USA_R50_SW USA_R50_NW USA_R64_NE USA_R64_SE USA_R64_SW USA_R64_NW USA_POCI USA_ROCI USA_RMW USA_EYE TOKYO_LAT TOKYO_LON TOKYO_GRADE TOKYO_WIND TOKYO_PRES TOKYO_R50_DIR TOKYO_R50_LONG TOKYO_R50_SHORT TOKYO_R30_DIR TOKYO_R30_LONG TOKYO_R30_SHORT TOKYO_LAND CMA_LAT CMA_LON CMA_CAT CMA_WIND CMA_PRES HKO_LAT HKO_LON HKO_CAT HKO_WIND HKO_PRES NEWDELHI_LAT NEWDELHI_LON NEWDELHI_GRADE NEWDELHI_WIND NEWDELHI_PRES NEWDELHI_CI NEWDELHI_DP NEWDELHI_POCI REUNION_LAT REUNION_LON REUNION_TYPE REUNION_WIND REUNION_PRES REUNION_TNUM REUNION_CI REUNION_RMW REUNION_R34_NE REUNION_R34_SE REUNION_R34_SW REUNION_R34_NW REUNION_R50_NE REUNION_R50_SE REUNION_R50_SW REUNION_R50_NW REUNION_R64_NE REUNION_R64_SE REUNION_R64_SW REUNION_R64_NW BOM_LAT BOM_LON BOM_TYPE BOM_WIND BOM_PRES BOM_TNUM BOM_CI BOM_RMW BOM_R34_NE BOM_R34_SE BOM_R34_SW BOM_R34_NW BOM_R50_NE BOM_R50_SE BOM_R50_SW BOM_R50_NW BOM_R64_NE BOM_R64_SE BOM_R64_SW BOM_R64_NW BOM_ROCI BOM_POCI BOM_EYE BOM_POS_METHOD BOM_PRES_METHOD NADI_LAT NADI_LON NADI_CAT NADI_WIND NADI_PRES WELLINGTON_LAT WELLINGTON_LON WELLINGTON_WIND WELLINGTON_PRES DS824_LAT DS824_LON DS824_STAGE DS824_WIND DS824_PRES TD9636_LAT TD9636_LON TD9636_STAGE TD9636_WIND TD9636_PRES TD9635_LAT TD9635_LON TD9635_WIND TD9635_PRES TD9635_ROCI NEUMANN_LAT NEUMANN_LON NEUMANN_CLASS NEUMANN_WIND NEUMANN_PRES MLC_LAT MLC_LON MLC_CLASS MLC_WIND MLC_PRES USA_GUST BOM_GUST BOM_GUST_PER REUNION_GUST REUNION_GUST_PER USA_SEAHGT USA_SEARAD_NE USA_SEARAD_SE USA_SEARAD_SW USA_SEARAD_NW STORM_SPEED STORM_DIR
1935351N07149 1935 73 WP MM NOT_NAMED 1935-12-16 21:00:00 NR 7.10000 149.100 main 1048 1028 __________O___ -1 7.10000 149.100 7 10 255
1935351N07149 1935 73 WP MM NOT_NAMED 1935-12-17 00:00:00 NR 6.96643 148.611 main 1028 1012 __________P___ -1 6.96643 148.611 7 10 260
1935351N07149 1935 73 WP MM NOT_NAMED 1935-12-17 03:00:00 NR 6.93606 148.138 main 1011 1011 __________P___ -1 6.93606 148.138 7 9 279
1935351N07149 1935 73 WP MM NOT_NAMED 1935-12-17 06:00:00 NR 7.11261 147.696 main 1031 1031 __________P___ -1 7.11261 147.696 7 11 309
1935351N07149 1935 73 WP MM NOT_NAMED 1935-12-17 09:00:00 NR 7.60000 147.300 main 1086 1086 __________O___ -1 7.60000 147.300 7 15 331
1935351N07149 1935 73 WP MM NOT_NAMED 1935-12-17 12:00:00 NR 8.45196 146.956 main 1187 1187 __________P___ -1 8.45196 146.956 7 20 341
1935351N07149 1935 73 WP MM NOT_NAMED 1935-12-17 15:00:00 NR 9.51954 146.644 main 1299 1299 __________P___ -1 9.51954 146.644 7 23 344
1935351N07149 1935 73 WP MM NOT_NAMED 1935-12-17 18:00:00 NR 10.6024 146.334 main 1423 1423 __________P___ -1 10.6024 146.334 7 21 342
1935351N07149 1935 73 WP MM NOT_NAMED 1935-12-17 21:00:00 NR 11.5000 146.000 main 1525 1525 __________O___ -1 11.5000 146.000 7 15 331
1935351N07149 1935 73 WP MM NOT_NAMED 1935-12-18 00:00:00 NR 11.9282 145.598 main 1572 1572 __________P___ -1 11.9282 145.598 7 10 309
1935351N07149 1935 73 WP MM NOT_NAMED 1935-12-18 03:00:00 NR 12.1522 145.171 main 1609 1609 __________P___ -1 12.1522 145.171 7 9 292
1935351N07149 1935 73 WP MM NOT_NAMED 1935-12-18 06:00:00 NR 12.2751 144.733 main 1627 1627 __________P___ -1 12.2751 144.733 7 9 286
1935351N07149 1935 73 WP MM NOT_NAMED 1935-12-18 09:00:00 NR 12.4000 144.300 main 1644 1644 __________O___ -1 12.4000 144.300 7 10 297
1935351N07149 1935 73 WP MM NOT_NAMED 1935-12-18 12:00:00 NR 12.7110 143.865 main 1684 1684 __________P___ -1 12.7110 143.865 7 11 307
1935351N07149 1935 73 WP MM NOT_NAMED 1935-12-18 15:00:00 NR 13.0376 143.441 main 1728 1728 __________P___ -1 13.0376 143.441 7 10 309
1935351N07149 1935 73 WP MM NOT_NAMED 1935-12-18 18:00:00 NR 13.3454 143.046 main 1751 1751 __________P___ -1 13.3454 143.046 7 9 308
1935351N07149 1935 73 WP MM NOT_NAMED 1935-12-18 21:00:00 NR 13.6000 142.700 main 1773 1770 __________O___ -1 13.6000 142.700 7 8 306
1935351N07149 1935 73 WP MM NOT_NAMED 1935-12-19 00:00:00 NR 13.7856 142.424 main 1785 1781 __________P___ -1 13.7856 142.424 7 6 303
1935351N07149 1935 73 WP MM NOT_NAMED 1935-12-19 03:00:00 NR 13.9120 142.197 main 1787 1783 __________P___ -1 13.9120 142.197 7 5 295
1935351N07149 1935 73 WP MM NOT_NAMED 1935-12-19 06:00:00 NR 13.9825 141.996 main 1789 1769 __________P___ -1 13.9825 141.996 7 4 283
1935351N07149 1935 73 WP MM NOT_NAMED 1935-12-19 09:00:00 NR 14.0000 141.800 main 1769 1748 __________O___ -1 14.0000 141.800 7 4 272
1935351N07149 1935 73 WP MM NOT_NAMED 1935-12-19 12:00:00 NR 13.9956 141.563 main 1748 1714 __________P___ -1 13.9956 141.563 7 5 263
1935351N07149 1935 73 WP MM NOT_NAMED 1935-12-19 15:00:00 NR 13.9400 141.327 main 1714 1691 __________P___ -1 13.9400 141.327 7 5 251
1935351N07149 1935 73 WP MM NOT_NAMED 1935-12-19 18:00:00 NR 13.8394 141.103 main 1691 1668 __________P___ -1 13.8394 141.103 7 5 240
1935351N07149 1935 73 WP MM NOT_NAMED 1935-12-19 21:00:00 NR 13.7000 140.900 main 1668 1654 __________O___ -1 13.7000 140.900 7 5 224
1935351N07149 1935 73 WP MM NOT_NAMED 1935-12-20 00:00:00 NR 13.5071 140.773 main 1654 1640 __________P___ -1 13.5071 140.773 7 5 209
1935351N07149 1935 73 WP MM NOT_NAMED 1935-12-20 03:00:00 NR 13.2844 140.660 main 1640 1616 __________P___ -1 13.2844 140.660 7 5 210
1935351N07149 1935 73 WP MM NOT_NAMED 1935-12-20 06:00:00 NR 13.0695 140.517 main 1616 1592 __________P___ -1 13.0695 140.517 7 5 222
1935351N07149 1935 73 WP MM NOT_NAMED 1935-12-20 09:00:00 NR 12.9000 140.300 main 1592 1558 __________O___ -1 12.9000 140.300 7 6 245
1935351N07149 1935 73 WP MM NOT_NAMED 1935-12-20 12:00:00 NR 12.8128 139.950 main 1558 1515 __________P___ -1 12.8128 139.950 7 8 261
1935351N07149 1935 73 WP MM NOT_NAMED 1935-12-20 15:00:00 NR 12.7754 139.525 main 1504 1461 __________P___ -1 12.7754 139.525 7 9 268
1935351N07149 1935 73 WP MM NOT_NAMED 1935-12-20 18:00:00 NR 12.7753 139.062 main 1461 1407 __________P___ -1 12.7753 139.062 7 9 272
1935351N07149 1935 73 WP MM NOT_NAMED 1935-12-20 21:00:00 NR 12.8000 138.600 main 1407 1375 __________O___ -1 12.8000 138.600 7 8 273
1935351N07149 1935 73 WP MM NOT_NAMED 1935-12-21 00:00:00 NR 12.8236 138.237 main 1364 1334 __________P___ -1 12.8236 138.237 7 7 276
1935351N07149 1935 73 WP MM NOT_NAMED 1935-12-21 03:00:00 NR 12.8688 137.875 main 1334 1291 __________P___ -1 12.8688 137.875 7 8 278
1935351N07149 1935 73 WP MM NOT_NAMED 1935-12-21 06:00:00 NR 12.9296 137.475 main 1291 1239 __________P___ -1 12.9296 137.475 7 9 279
1935351N07149 1935 73 WP MM NOT_NAMED 1935-12-21 09:00:00 NR 13.0000 137.000 main 1239 1177 __________O___ -1 13.0000 137.000 7 10 278
1935351N07149 1935 73 WP MM NOT_NAMED 1935-12-21 12:00:00 NR 13.0720 136.412 main 1177 1113 __________P___ -1 13.0720 136.412 7 12 277
1935351N07149 1935 73 WP MM NOT_NAMED 1935-12-21 15:00:00 NR 13.1502 135.747 main 1104 1041 __________P___ -1 13.1502 135.747 7 14 277
1935351N07149 1935 73 WP MM NOT_NAMED 1935-12-21 18:00:00 NR 13.2281 135.034 main 1030 959 __________P___ -1 13.2281 135.034 7 14 276
1935351N07149 1935 73 WP MM NOT_NAMED 1935-12-21 21:00:00 NR 13.3000 134.300 main 959 899 __________O___ -1 13.3000 134.300 7 13 276
1935351N07149 1935 73 WP MM NOT_NAMED 1935-12-22 00:00:00 NR 13.3542 133.690 main 899 835 __________P___ -1 13.3542 133.690 7 12 275
1935351N07149 1935 73 WP MM NOT_NAMED 1935-12-22 03:00:00 NR 13.4027 133.051 main 835 760 __________P___ -1 13.4027 133.051 7 13 274
1935351N07149 1935 73 WP MM NOT_NAMED 1935-12-22 06:00:00 NR 13.4501 132.312 main 751 666 __________P___ -1 13.4501 132.312 7 16 273
1935351N07149 1935 73 WP MM NOT_NAMED 1935-12-22 09:00:00 NR 13.5000 131.400 main 656 533 __________O___ -1 13.5000 131.400 7 22 273
1935351N07149 1935 73 WP MM NOT_NAMED 1935-12-22 12:00:00 NR 13.5601 130.092 main 522 380 __________P___ -1 13.5601 130.092 7 27 272
1935351N07149 1935 73 WP MM NOT_NAMED 1935-12-22 15:00:00 NR 13.6162 128.633 main 370 257 __________P___ -1 13.6162 128.633 7 28 272
1935351N07149 1935 73 WP MM NOT_NAMED 1935-12-22 18:00:00 NR 13.6632 127.207 main 249 166 __________P___ -1 13.6632 127.207 7 26 272
1935351N07149 1935 73 WP MM NOT_NAMED 1935-12-22 21:00:00 NR 13.7000 126.000 main 159 97 __________O___ -1 13.7000 126.000 7 19 272
1935351N07149 1935 73 WP MM NOT_NAMED 1935-12-23 00:00:00 NR 13.7317 125.252 main 97 43 __________P___ -1 13.7317 125.252 7 12 273
1935351N07149 1935 73 WP MM NOT_NAMED 1935-12-23 03:00:00 NR 13.7597 124.738 main 32 0 __________P___ -1 13.7597 124.738 7 9 273
1935351N07149 1935 73 WP MM NOT_NAMED 1935-12-23 06:00:00 NR 13.7831 124.355 main 0 0 __________P___ -1 13.7831 124.355 7 7 273
1935351N07149 1935 73 WP MM NOT_NAMED 1935-12-23 09:00:00 NR 13.8000 124.000 main 10 0 __________O___ -1 13.8000 124.000 7 8 274
1935351N07149 1935 73 WP MM NOT_NAMED 1935-12-23 12:00:00 NR 13.8478 123.494 main 0 0 __________P___ -1 13.8478 123.494 7 10 275
1935351N07149 1935 73 WP MM NOT_NAMED 1935-12-23 15:00:00 NR 13.8825 122.998 main 0 0 __________P___ -1 13.8825 122.998 7 9 272
1935351N07149 1935 73 WP MM NOT_NAMED 1935-12-23 18:00:00 NR 13.8760 122.528 main 10 0 __________P___ -1 13.8760 122.528 7 9 265
1935351N07149 1935 73 WP MM NOT_NAMED 1935-12-23 21:00:00 NR 13.8000 122.100 main 0 0 __________O___ -1 13.8000 122.100 7 8 253
1935351N07149 1935 73 WP MM NOT_NAMED 1935-12-24 00:00:00 NR 13.6353 121.724 main 24 15 __________P___ -1 13.6353 121.724 7 8 240
1935351N07149 1935 73 WP MM NOT_NAMED 1935-12-24 03:00:00 NR 13.3975 121.392 main 15 0 __________P___ -1 13.3975 121.392 7 8 230
1935351N07149 1935 73 WP MM NOT_NAMED 1935-12-24 06:00:00 NR 13.1110 121.088 main 0 0 __________P___ -1 13.1110 121.088 7 8 224
1935351N07149 1935 73 WP MM NOT_NAMED 1935-12-24 09:00:00 NR 12.8000 120.800 main 0 __________O___ -1 12.8000 120.800 7 8 222

Digital Typhoon Data and Search

About IBTrACS Database

This database is a web-friendly format of International Best Track Archive for Climate Stewardship (IBTrACS), a global best track data archive curated by NOAA dating back to 1842.

Updated: 2021-10-21